createdAt,value
2017-08-17T00:02:17.131Z,11.83
2017-08-17T00:04:44.606Z,12.87
2017-08-17T00:07:12.072Z,10.83
2017-08-17T00:09:39.555Z,12.03
2017-08-17T00:12:07.025Z,10.80
2017-08-17T00:14:34.505Z,10.57
2017-08-17T00:17:01.975Z,11.47
2017-08-17T00:19:29.447Z,11.00
2017-08-17T00:21:57.726Z,10.00
2017-08-17T00:24:25.992Z,10.30
2017-08-17T00:26:53.468Z,11.40
2017-08-17T00:29:21.704Z,11.43
2017-08-17T00:31:49.184Z,10.43
2017-08-17T00:34:16.650Z,10.13
2017-08-17T00:36:44.907Z,12.03
2017-08-17T00:39:12.385Z,10.57
2017-08-17T00:41:40.635Z,11.80
2017-08-17T00:44:08.100Z,11.27
2017-08-17T00:46:35.584Z,10.27
2017-08-17T00:49:03.819Z,10.50
2017-08-17T00:51:31.301Z,9.77
2017-08-17T00:53:58.767Z,11.40
2017-08-17T00:56:26.242Z,10.10
2017-08-17T00:58:54.759Z,10.07
2017-08-17T01:01:22.231Z,9.80
2017-08-17T01:03:49.691Z,9.60
2017-08-17T01:06:17.162Z,9.70
2017-08-17T01:08:44.640Z,11.00
2017-08-17T01:11:12.891Z,9.13
2017-08-17T01:13:40.356Z,9.90
2017-08-17T01:16:07.822Z,9.40
2017-08-17T01:18:35.303Z,10.50
2017-08-17T01:21:03.539Z,11.40
2017-08-17T01:23:31.004Z,10.87
2017-08-17T01:25:58.486Z,10.70
2017-08-17T01:28:25.940Z,9.63
2017-08-17T01:30:54.207Z,10.23
2017-08-17T01:33:21.680Z,11.53
2017-08-17T01:35:49.939Z,10.37
2017-08-17T01:38:17.403Z,11.00
2017-08-17T01:40:44.867Z,10.60
2017-08-17T01:43:12.356Z,11.60
2017-08-17T01:45:39.819Z,12.70
2017-08-17T01:48:07.296Z,11.77
2017-08-17T01:50:34.770Z,12.43
2017-08-17T01:53:02.244Z,12.37
2017-08-17T01:55:29.712Z,12.93
2017-08-17T01:57:57.187Z,12.20
2017-08-17T02:00:25.419Z,13.37
2017-08-17T02:02:52.890Z,13.00
2017-08-17T02:05:20.366Z,13.47
2017-08-17T02:07:47.836Z,12.50
2017-08-17T02:10:16.074Z,10.93
2017-08-17T02:12:43.544Z,12.60
2017-08-17T02:15:11.014Z,12.03
2017-08-17T02:17:38.490Z,11.30
2017-08-17T02:20:06.732Z,13.93
2017-08-17T02:22:34.186Z,11.60
2017-08-17T02:25:03.180Z,13.70
2017-08-17T02:27:30.644Z,14.10
2017-08-17T02:29:58.115Z,14.23
2017-08-17T02:32:25.583Z,12.70
2017-08-17T02:34:53.828Z,14.23
2017-08-17T02:37:21.304Z,12.00
2017-08-17T02:39:48.783Z,13.17
2017-08-17T02:42:17.027Z,13.50
2017-08-17T02:44:44.500Z,12.93
2017-08-17T02:47:11.975Z,13.07
2017-08-17T02:49:40.221Z,14.00
2017-08-17T02:52:07.695Z,12.23
2017-08-17T02:54:35.176Z,13.97
2017-08-17T02:57:03.407Z,13.27
2017-08-17T02:59:30.871Z,12.93
2017-08-17T03:01:58.337Z,14.60
2017-08-17T03:04:25.803Z,12.80
2017-08-17T03:06:54.054Z,12.40
2017-08-17T03:09:21.528Z,13.27
2017-08-17T03:11:52.772Z,14.00
2017-08-17T03:14:20.240Z,12.60
2017-08-17T03:16:47.718Z,11.63
2017-08-17T03:19:15.951Z,13.30
2017-08-17T03:21:43.433Z,13.77
2017-08-17T03:24:10.893Z,13.00
2017-08-17T03:26:38.379Z,11.77
2017-08-17T03:29:05.843Z,13.30
2017-08-17T03:31:33.574Z,13.60
2017-08-17T03:34:01.026Z,13.07
2017-08-17T03:36:28.499Z,12.37
2017-08-17T03:38:56.727Z,13.97
2017-08-17T03:41:24.198Z,13.43
2017-08-17T03:43:51.657Z,13.10
2017-08-17T03:46:19.135Z,13.70
2017-08-17T03:48:46.607Z,13.17
2017-08-17T03:51:14.093Z,12.70
2017-08-17T03:53:41.554Z,16.77
2017-08-17T03:56:09.036Z,15.70
2017-08-17T03:58:36.511Z,15.33
2017-08-17T04:01:03.981Z,14.57
2017-08-17T04:03:31.447Z,16.03
2017-08-17T04:05:58.922Z,15.70
2017-08-17T04:08:26.399Z,16.00
2017-08-17T04:10:53.879Z,16.50
2017-08-17T04:13:21.344Z,15.73
2017-08-17T04:15:48.819Z,15.73
2017-08-17T04:18:16.288Z,15.13
2017-08-17T04:20:43.765Z,16.20
2017-08-17T04:23:11.236Z,15.40
2017-08-17T04:25:39.472Z,16.13
2017-08-17T04:28:06.946Z,16.07
2017-08-17T04:30:34.407Z,15.93
2017-08-17T04:33:01.893Z,14.47
2017-08-17T04:35:30.123Z,13.90
2017-08-17T04:37:57.610Z,15.40
2017-08-17T04:40:25.068Z,16.23
2017-08-17T04:42:53.307Z,16.37
2017-08-17T04:45:20.772Z,14.30
2017-08-17T04:47:48.268Z,16.13
2017-08-17T04:50:15.731Z,14.30
2017-08-17T04:52:43.959Z,16.07
2017-08-17T04:55:11.659Z,16.90
2017-08-17T04:58:05.022Z,16.50
2017-08-17T05:00:32.482Z,15.20
2017-08-17T05:03:00.702Z,16.73
2017-08-17T05:05:28.183Z,16.43
2017-08-17T05:07:55.655Z,16.50
2017-08-17T05:10:23.127Z,17.90
2017-08-17T05:12:50.596Z,18.93
2017-08-17T05:15:18.835Z,18.80
2017-08-17T05:17:46.304Z,17.20
2017-08-17T05:20:13.783Z,17.70
2017-08-17T05:22:42.018Z,18.67
2017-08-17T05:25:09.506Z,18.63
2017-08-17T05:27:36.981Z,17.87
2017-08-17T05:30:05.220Z,18.07
2017-08-17T05:32:32.681Z,18.57
2017-08-17T05:35:00.157Z,22.57
2017-08-17T05:37:27.622Z,20.47
2017-08-17T05:39:55.095Z,19.20
2017-08-17T05:42:23.327Z,18.63
2017-08-17T05:44:50.803Z,16.70
2017-08-17T05:47:18.262Z,19.27
2017-08-17T05:49:45.742Z,18.50
2017-08-17T05:52:13.970Z,19.97
2017-08-17T05:57:15.359Z,20.40
2017-08-17T05:59:42.846Z,18.70
2017-08-17T06:02:11.074Z,21.80
2017-08-17T06:04:38.565Z,20.47
2017-08-17T06:07:06.053Z,20.87
2017-08-17T06:09:33.528Z,20.97
2017-08-17T06:12:01.011Z,20.07
2017-08-17T06:14:28.479Z,19.20
2017-08-17T06:16:56.019Z,21.57
2017-08-17T06:19:23.490Z,20.20
2017-08-17T06:21:50.972Z,20.67
2017-08-17T06:24:18.434Z,18.47
2017-08-17T06:26:45.905Z,18.33
2017-08-17T06:29:13.377Z,18.23
2017-08-17T06:31:40.862Z,17.57
2017-08-17T06:34:08.325Z,18.50
2017-08-17T06:36:35.802Z,16.47
2017-08-17T06:39:03.276Z,17.40
2017-08-17T06:41:30.758Z,16.00
2017-08-17T06:43:58.982Z,15.90
2017-08-17T06:46:26.466Z,16.07
2017-08-17T06:48:53.936Z,14.50
2017-08-17T06:51:21.398Z,14.20
2017-08-17T06:53:48.871Z,13.77
2017-08-17T06:56:17.486Z,13.10
2017-08-17T06:58:44.956Z,12.43
2017-08-17T07:01:12.437Z,12.77
2017-08-17T07:03:39.929Z,11.60
2017-08-17T07:06:08.160Z,13.07
2017-08-17T07:08:35.637Z,11.07
2017-08-17T07:11:03.114Z,10.60
2017-08-17T07:13:30.585Z,10.73
2017-08-17T07:15:58.828Z,10.10
2017-08-17T07:18:26.627Z,10.97
2017-08-17T07:20:54.855Z,11.23
2017-08-17T07:23:22.321Z,11.27
2017-08-17T07:25:49.788Z,9.50
2017-08-17T07:28:17.274Z,10.80
2017-08-17T07:30:44.747Z,10.40
2017-08-17T07:33:12.202Z,10.33
2017-08-17T07:35:39.690Z,11.83
2017-08-17T07:38:07.259Z,11.60
2017-08-17T07:40:34.740Z,11.10
2017-08-17T07:43:02.301Z,10.77
2017-08-17T07:45:30.574Z,11.93
2017-08-17T07:47:58.043Z,12.33
2017-08-17T07:50:25.514Z,11.00
2017-08-17T07:52:53.746Z,10.87
2017-08-17T07:55:21.218Z,11.60
2017-08-17T07:57:48.681Z,9.80
2017-08-17T08:00:16.288Z,10.00
2017-08-17T08:02:43.751Z,10.00
2017-08-17T08:05:11.232Z,10.80
2017-08-17T08:07:38.691Z,8.80
2017-08-17T08:10:06.195Z,9.53
2017-08-17T08:12:33.654Z,8.77
2017-08-17T08:15:01.375Z,8.30
2017-08-17T08:17:28.843Z,6.00
2017-08-17T08:19:56.326Z,7.40
2017-08-17T08:22:23.789Z,5.93
2017-08-17T08:24:51.250Z,6.60
2017-08-17T08:27:18.723Z,6.97
2017-08-17T08:29:46.959Z,7.23
2017-08-17T08:32:14.431Z,7.60
2017-08-17T08:34:41.911Z,7.77
2017-08-17T08:37:10.154Z,7.30
2017-08-17T08:39:37.611Z,7.50
2017-08-17T08:42:05.079Z,7.10
2017-08-17T08:44:32.546Z,6.83
2017-08-17T08:47:00.019Z,6.20
2017-08-17T08:49:28.242Z,6.83
2017-08-17T08:51:55.707Z,6.93
2017-08-17T08:54:23.170Z,7.60
2017-08-17T08:56:50.633Z,6.50
2017-08-17T08:59:18.086Z,7.40
2017-08-17T09:01:45.558Z,7.10
2017-08-17T09:04:13.010Z,7.80
2017-08-17T09:06:40.500Z,7.30
2017-08-17T09:09:07.954Z,6.13
2017-08-17T09:11:35.443Z,6.30
2017-08-17T09:14:02.908Z,7.97
2017-08-17T09:16:30.366Z,6.73
2017-08-17T09:18:57.843Z,5.77
2017-08-17T09:21:25.302Z,6.17
2017-08-17T09:23:52.776Z,6.13
2017-08-17T09:26:20.243Z,5.33
2017-08-17T09:28:47.703Z,5.30
2017-08-17T09:31:15.168Z,6.00
2017-08-17T09:33:42.626Z,5.47
2017-08-17T09:36:10.082Z,5.20
2017-08-17T09:38:37.551Z,5.93
2017-08-17T09:41:05.024Z,5.37
2017-08-17T09:43:32.491Z,5.47
2017-08-17T09:46:00.720Z,5.30
2017-08-17T09:48:28.196Z,5.10
2017-08-17T09:50:55.656Z,4.47
2017-08-17T09:53:23.134Z,9.40
2017-08-17T09:55:51.368Z,5.73
2017-08-17T09:58:18.844Z,5.00
2017-08-17T10:00:46.297Z,5.20
2017-08-17T10:03:13.783Z,4.97
2017-08-17T10:05:42.007Z,5.10
2017-08-17T10:08:09.459Z,5.10
2017-08-17T10:10:36.934Z,5.43
2017-08-17T10:13:04.390Z,5.17
2017-08-17T10:15:31.859Z,4.90
2017-08-17T10:17:59.327Z,5.50
2017-08-17T10:20:26.794Z,5.00
2017-08-17T10:22:54.258Z,5.23
2017-08-17T10:25:21.743Z,6.77
2017-08-17T10:27:49.226Z,5.50
2017-08-17T10:30:16.691Z,5.70
2017-08-17T10:32:44.153Z,5.50
2017-08-17T10:35:11.623Z,5.67
2017-08-17T10:37:39.079Z,4.77
2017-08-17T10:40:06.562Z,5.17
2017-08-17T10:42:34.015Z,5.73
2017-08-17T10:45:01.491Z,5.53
2017-08-17T10:47:28.945Z,5.77
2017-08-17T10:49:56.410Z,6.13
2017-08-17T10:52:24.645Z,4.77
2017-08-17T10:54:52.205Z,4.47
2017-08-17T10:57:19.666Z,5.10
2017-08-17T10:59:47.136Z,4.73
2017-08-17T11:02:14.599Z,4.50
2017-08-17T11:04:42.052Z,4.60
2017-08-17T11:07:09.531Z,4.87
2017-08-17T11:09:36.986Z,4.67
2017-08-17T11:12:05.244Z,5.10
2017-08-17T11:14:32.707Z,4.50
2017-08-17T11:17:00.180Z,4.27
2017-08-17T11:19:27.647Z,4.50
2017-08-17T11:21:55.883Z,4.60
2017-08-17T11:24:23.350Z,3.77
2017-08-17T11:26:50.836Z,3.50
2017-08-17T11:29:19.070Z,3.33
2017-08-17T11:31:46.544Z,3.50
2017-08-17T11:34:14.007Z,3.67
2017-08-17T11:36:41.475Z,3.90
2017-08-17T11:39:08.934Z,3.73
2017-08-17T11:41:36.424Z,3.67
2017-08-17T11:44:04.650Z,3.60
2017-08-17T11:46:32.118Z,3.97
2017-08-17T11:48:59.577Z,4.00
2017-08-17T11:51:27.058Z,3.43
2017-08-17T11:53:55.284Z,4.10
2017-08-17T11:56:22.756Z,4.20
2017-08-17T11:58:50.220Z,4.30
2017-08-17T12:01:17.680Z,3.93
2017-08-17T12:03:45.141Z,3.67
2017-08-17T12:06:12.593Z,3.93
2017-08-17T12:08:40.057Z,3.97
2017-08-17T12:11:07.529Z,4.50
2017-08-17T12:13:35.005Z,4.60
2017-08-17T12:16:03.279Z,4.70
2017-08-17T12:18:31.523Z,4.30
2017-08-17T12:20:59.056Z,4.13
2017-08-17T12:23:26.925Z,4.40
2017-08-17T12:25:54.380Z,4.93
2017-08-17T12:28:21.847Z,5.60
2017-08-17T12:30:49.313Z,5.17
2017-08-17T12:33:16.779Z,4.73
2017-08-17T12:35:44.242Z,4.50
2017-08-17T12:38:11.706Z,5.87
2017-08-17T12:40:39.158Z,4.87
2017-08-17T12:43:06.695Z,5.17
2017-08-17T12:45:34.150Z,4.53
2017-08-17T12:48:01.610Z,5.63
2017-08-17T12:50:29.079Z,5.27
2017-08-17T12:52:56.551Z,5.47
2017-08-17T12:55:24.017Z,5.47
2017-08-17T12:57:51.486Z,4.87
2017-08-17T13:00:18.950Z,4.87
2017-08-17T13:02:46.417Z,4.73
2017-08-17T13:05:13.882Z,5.43
2017-08-17T13:07:42.109Z,5.03
2017-08-17T13:10:09.580Z,5.40
2017-08-17T13:12:37.051Z,5.20
2017-08-17T13:15:04.515Z,5.50
2017-08-17T13:17:31.972Z,5.90
2017-08-17T13:19:59.446Z,5.30
2017-08-17T13:22:27.678Z,5.07
2017-08-17T13:24:55.148Z,4.60
2017-08-17T13:27:22.617Z,5.63
2017-08-17T13:29:50.085Z,5.20
2017-08-17T13:32:17.558Z,5.27
2017-08-17T13:34:45.807Z,5.30
2017-08-17T13:37:13.272Z,5.00
2017-08-17T13:39:40.733Z,5.50
2017-08-17T13:42:08.190Z,4.80
2017-08-17T13:44:35.665Z,4.60
2017-08-17T13:47:03.131Z,4.87
2017-08-17T13:49:31.362Z,5.27
2017-08-17T13:51:58.828Z,5.57
2017-08-17T13:54:26.291Z,5.50
2017-08-17T13:56:53.768Z,5.47
2017-08-17T13:59:21.231Z,4.90
2017-08-17T14:01:48.703Z,5.23
2017-08-17T14:04:16.927Z,5.70
2017-08-17T14:06:44.403Z,5.17
2017-08-17T14:09:11.871Z,5.43
2017-08-17T14:11:39.351Z,5.80
2017-08-17T14:14:07.571Z,5.47
2017-08-17T14:16:35.055Z,5.40
2017-08-17T14:19:02.508Z,6.00
2017-08-17T14:21:29.964Z,5.17
2017-08-17T14:23:57.448Z,5.50
2017-08-17T14:26:24.907Z,5.40
2017-08-17T14:28:52.368Z,5.00
2017-08-17T14:31:20.599Z,5.00
2017-08-17T14:33:48.054Z,5.57
2017-08-17T14:36:15.524Z,5.27
2017-08-17T14:38:42.999Z,6.07
2017-08-17T14:41:10.453Z,5.97
2017-08-17T14:43:37.919Z,4.77
2017-08-17T14:46:05.380Z,5.50
2017-08-17T14:48:32.851Z,5.90
2017-08-17T14:51:01.091Z,5.37
2017-08-17T14:53:28.566Z,4.83
2017-08-17T14:55:56.028Z,5.60
2017-08-17T14:58:23.486Z,5.50
2017-08-17T15:00:50.955Z,6.00
2017-08-17T15:03:18.427Z,5.53
2017-08-17T15:05:46.660Z,5.50
2017-08-17T15:08:14.151Z,5.73
2017-08-17T15:10:41.618Z,5.63
2017-08-17T15:13:09.843Z,6.27
2017-08-17T15:15:37.316Z,5.97
2017-08-17T15:18:04.785Z,5.67
2017-08-17T15:20:32.260Z,4.97
2017-08-17T15:22:59.715Z,5.30
2017-08-17T15:25:27.202Z,4.73
2017-08-17T15:27:55.454Z,5.80
2017-08-17T15:30:23.716Z,5.53
2017-08-17T15:32:51.184Z,5.37
2017-08-17T15:35:18.646Z,5.53
2017-08-17T15:37:46.114Z,4.97
2017-08-17T15:40:14.361Z,4.57
2017-08-17T15:42:41.821Z,5.00
2017-08-17T15:45:09.279Z,4.80
2017-08-17T15:47:36.747Z,5.33
2017-08-17T15:50:04.216Z,4.50
2017-08-17T15:52:31.691Z,4.60
2017-08-17T15:54:59.939Z,4.03
2017-08-17T15:57:27.392Z,5.00
2017-08-17T15:59:54.919Z,4.70
2017-08-17T16:02:22.389Z,4.80
2017-08-17T16:04:49.860Z,4.57
2017-08-17T16:07:17.318Z,4.77
2017-08-17T16:09:44.777Z,4.60
2017-08-17T16:12:12.259Z,5.17
2017-08-17T16:14:39.724Z,4.43
2017-08-17T16:17:07.197Z,4.93
2017-08-17T16:19:35.431Z,4.67
2017-08-17T16:22:02.903Z,4.87
2017-08-17T16:24:30.353Z,5.80
2017-08-17T16:26:57.836Z,5.43
2017-08-17T16:29:25.287Z,5.20
2017-08-17T16:31:52.755Z,5.77
2017-08-17T16:34:20.983Z,6.50
2017-08-17T16:36:48.455Z,6.87
2017-08-17T16:39:15.921Z,6.80
2017-08-17T16:41:44.902Z,6.30
2017-08-17T16:44:12.373Z,6.27
2017-08-17T16:46:39.942Z,6.20
2017-08-17T16:49:07.406Z,7.20
2017-08-17T16:51:35.679Z,7.07
2017-08-17T16:54:03.151Z,7.80
2017-08-17T16:56:31.395Z,7.60
2017-08-17T16:58:58.882Z,6.83
2017-08-17T17:01:26.330Z,6.43
2017-08-17T17:03:53.803Z,8.07
2017-08-17T17:06:22.027Z,7.23
2017-08-17T17:08:49.502Z,6.50
2017-08-17T17:11:16.972Z,7.77
2017-08-17T17:13:44.494Z,7.87
2017-08-17T17:16:11.967Z,6.90
2017-08-17T17:18:39.435Z,7.20
2017-08-17T17:21:06.901Z,8.20
2017-08-17T17:23:34.353Z,8.13
2017-08-17T17:26:01.816Z,6.63
2017-08-17T17:28:29.653Z,8.20
2017-08-17T17:30:57.132Z,6.90
2017-08-17T17:33:24.606Z,6.23
2017-08-17T17:35:52.068Z,5.77
2017-08-17T17:38:19.534Z,7.53
2017-08-17T17:40:46.986Z,6.83
2017-08-17T17:43:14.466Z,7.27
2017-08-17T17:45:42.702Z,6.40
2017-08-17T17:48:10.162Z,6.43
2017-08-17T17:50:37.631Z,6.93
2017-08-17T17:53:05.097Z,6.50
2017-08-17T17:55:32.555Z,6.60
2017-08-17T17:58:00.029Z,6.33
2017-08-17T18:00:28.255Z,6.90
2017-08-17T18:02:55.717Z,6.60
2017-08-17T18:05:23.255Z,5.70
2017-08-17T18:07:50.716Z,5.40
2017-08-17T18:10:18.211Z,5.50
2017-08-17T18:12:45.687Z,5.50
2017-08-17T18:15:13.151Z,6.27
2017-08-17T18:17:40.632Z,6.37
2017-08-17T18:20:08.851Z,5.90
2017-08-17T18:22:36.332Z,6.43
2017-08-17T18:25:03.806Z,5.63
2017-08-17T18:27:31.266Z,5.80
2017-08-17T18:30:00.206Z,6.67
2017-08-17T18:32:27.669Z,6.40
2017-08-17T18:34:55.134Z,6.30
2017-08-17T18:37:22.595Z,6.20
2017-08-17T18:39:50.087Z,4.93
2017-08-17T18:42:17.576Z,6.00
2017-08-17T18:44:45.094Z,6.10
2017-08-17T18:47:12.613Z,6.70
2017-08-17T18:49:40.066Z,6.00
2017-08-17T18:52:07.536Z,6.53
2017-08-17T18:54:35.005Z,6.50
2017-08-17T18:57:02.467Z,5.03
2017-08-17T18:59:29.938Z,6.00
2017-08-17T19:01:57.403Z,5.93
2017-08-17T19:04:24.861Z,6.10
2017-08-17T19:06:52.344Z,6.70
2017-08-17T19:09:21.506Z,5.73
2017-08-17T19:11:48.971Z,6.50
2017-08-17T19:14:16.435Z,5.73
2017-08-17T19:16:43.899Z,5.93
2017-08-17T19:19:11.358Z,5.80
2017-08-17T19:21:39.432Z,6.27
2017-08-17T19:24:06.899Z,5.83
2017-08-17T19:26:35.126Z,5.50
2017-08-17T19:29:02.587Z,5.73
2017-08-17T19:31:30.059Z,5.73
2017-08-17T19:33:57.540Z,5.40
2017-08-17T19:36:25.000Z,5.23
2017-08-17T19:38:52.453Z,6.43
2017-08-17T19:41:19.932Z,5.27
2017-08-17T19:43:48.149Z,5.37
2017-08-17T19:46:15.618Z,5.40
2017-08-17T19:48:43.084Z,5.67
2017-08-17T19:51:10.551Z,5.17
2017-08-17T19:53:38.014Z,5.47
2017-08-17T19:56:06.987Z,4.80
2017-08-17T19:58:34.447Z,4.30
2017-08-17T20:01:03.248Z,4.30
2017-08-17T20:03:30.707Z,3.37
2017-08-17T20:05:58.461Z,3.53
2017-08-17T20:08:25.917Z,4.47
2017-08-17T20:10:53.387Z,3.50
2017-08-17T20:13:20.864Z,3.47
2017-08-17T20:15:48.333Z,3.93
2017-08-17T20:18:16.558Z,3.40
2017-08-17T20:20:44.028Z,3.23
2017-08-17T20:23:11.509Z,3.43
2017-08-17T20:25:38.987Z,3.97
2017-08-17T20:28:07.220Z,3.87
2017-08-17T20:30:34.712Z,3.37
2017-08-17T20:33:02.170Z,3.40
2017-08-17T20:35:30.410Z,3.90
2017-08-17T20:37:57.887Z,3.40
2017-08-17T20:40:25.342Z,3.60
2017-08-17T20:42:52.829Z,3.87
2017-08-17T20:45:21.060Z,3.70
2017-08-17T20:47:48.527Z,3.43
2017-08-17T20:50:16.010Z,3.70
2017-08-17T20:52:43.498Z,3.43
2017-08-17T20:55:10.961Z,4.10
2017-08-17T20:57:38.440Z,4.27
2017-08-17T21:00:05.895Z,3.63
2017-08-17T21:02:33.367Z,3.77
2017-08-17T21:05:00.833Z,3.73
2017-08-17T21:07:28.315Z,2.90
2017-08-17T21:09:56.247Z,2.77
2017-08-17T21:12:23.715Z,3.13
2017-08-17T21:14:51.188Z,3.47
2017-08-17T21:17:18.650Z,4.10
2017-08-17T21:19:46.127Z,3.50
2017-08-17T21:22:13.606Z,3.27
2017-08-17T21:24:41.826Z,2.80
2017-08-17T21:27:09.287Z,3.23
2017-08-17T21:29:36.755Z,3.60
2017-08-17T21:32:04.233Z,3.80
2017-08-17T21:34:31.700Z,3.60
2017-08-17T21:36:59.927Z,2.70
2017-08-17T21:39:27.396Z,3.43
2017-08-17T21:41:54.859Z,3.97
2017-08-17T21:44:22.339Z,3.80
2017-08-17T21:46:49.806Z,3.10
2017-08-17T21:49:17.275Z,3.40
2017-08-17T21:51:45.494Z,3.30
2017-08-17T21:54:12.967Z,3.43
2017-08-17T21:56:40.451Z,3.00
2017-08-17T21:59:44.481Z,3.70
2017-08-17T22:02:11.943Z,3.00
2017-08-17T22:04:40.181Z,3.47
2017-08-17T22:07:07.635Z,3.53
2017-08-17T22:09:35.114Z,3.33
2017-08-17T22:12:02.564Z,3.63
2017-08-17T22:14:30.026Z,3.77
2017-08-17T22:16:57.492Z,3.80
2017-08-17T22:19:24.977Z,4.07
2017-08-17T22:21:52.438Z,3.23
2017-08-17T22:24:19.907Z,3.47
2017-08-17T22:26:47.393Z,4.00
2017-08-17T22:29:14.851Z,3.63
2017-08-17T22:31:42.327Z,3.70
2017-08-17T22:34:09.791Z,3.60
2017-08-17T22:36:37.263Z,4.10
2017-08-17T22:39:05.494Z,3.60
2017-08-17T22:41:32.959Z,3.33
2017-08-17T22:44:01.579Z,3.50
2017-08-17T22:46:29.054Z,3.67
2017-08-17T22:48:57.274Z,3.37
2017-08-17T22:51:24.761Z,3.90
2017-08-17T22:53:52.214Z,3.20
2017-08-17T22:56:19.947Z,3.10
2017-08-17T22:58:47.400Z,3.83
2017-08-17T23:01:14.864Z,3.67
2017-08-17T23:03:42.321Z,3.20
2017-08-17T23:06:09.791Z,3.30
2017-08-17T23:08:37.251Z,3.50
2017-08-17T23:11:04.735Z,3.57
2017-08-17T23:13:32.190Z,4.10
2017-08-17T23:15:59.676Z,3.23
2017-08-17T23:18:27.901Z,3.83
2017-08-17T23:20:55.366Z,3.00
2017-08-17T23:23:22.834Z,3.43
2017-08-17T23:25:50.304Z,3.53
2017-08-17T23:28:17.766Z,3.60
2017-08-17T23:30:45.233Z,3.43
2017-08-17T23:33:12.706Z,3.90
2017-08-17T23:35:40.167Z,4.33
2017-08-17T23:38:07.636Z,4.00
2017-08-17T23:40:35.091Z,3.80
2017-08-17T23:43:02.565Z,4.23
2017-08-17T23:45:30.028Z,3.40
2017-08-17T23:47:57.499Z,3.73
2017-08-17T23:50:24.963Z,4.03
2017-08-17T23:52:52.752Z,3.33
2017-08-17T23:55:20.200Z,3.80
2017-08-17T23:57:47.672Z,3.00
